Time;durP1;ratioP1;P1;durP2;ratioP2;P2;SDS_P1;SDS_P2;PMS_P1;PMS_P2;Temp;Humidity;BMP_temperature;BMP_pressure;BME280_temperature;BME280_humidity;BME280_pressure;Samples;Min_cycle;Max_cycle;Signal;HPM_P1;HPM_P2
2023/08/20 00:00:22;;;;;;;9.68;5.85;;;;;;;25.88;75.60;100888.78;4861968;29;20259;-69
2023/08/20 00:02:58;;;;;;;11.73;5.20;;;;;;;25.84;75.57;100886.56;4860413;29;20229;-70
2023/08/20 00:05:26;;;;;;;9.52;5.50;;;;;;;25.84;75.63;100878.41;4859295;29;20209;-69
2023/08/20 00:07:54;;;;;;;8.20;5.70;;;;;;;25.83;75.71;100886.78;4861560;29;20296;-68
2023/08/20 00:10:22;;;;;;;10.35;6.00;;;;;;;25.83;75.57;100886.78;4860511;29;20785;-69
2023/08/20 00:12:49;;;;;;;9.30;5.57;;;;;;;25.81;75.91;100889.75;4858092;29;20210;-70
2023/08/20 00:15:19;;;;;;;7.18;5.47;;;;;;;25.79;75.99;100878.28;4861139;29;20215;-68
2023/08/20 00:17:49;;;;;;;7.38;5.70;;;;;;;25.78;76.46;100886.66;4857568;29;20572;-69
2023/08/20 00:20:17;;;;;;;8.02;5.50;;;;;;;25.76;76.29;100888.81;4857446;29;20221;-69
2023/08/20 00:22:46;;;;;;;10.00;5.90;;;;;;;25.73;76.74;100887.38;4861081;29;20886;-68
2023/08/20 00:25:16;;;;;;;9.10;5.60;;;;;;;25.71;76.76;100894.94;4855822;29;20620;-69
2023/08/20 00:27:44;;;;;;;18.60;5.88;;;;;;;25.69;76.72;100888.91;4857940;29;20218;-69
2023/08/20 00:30:12;;;;;;;14.77;6.03;;;;;;;25.67;77.55;100893.78;4858042;29;20685;-70
2023/08/20 00:32:40;;;;;;;8.77;5.72;;;;;;;25.62;78.02;100901.78;4860459;29;20887;-71
2023/08/20 00:35:10;;;;;;;9.55;6.18;;;;;;;25.55;77.94;100890.19;4860685;29;20227;-69
2023/08/20 00:37:38;;;;;;;8.75;5.22;;;;;;;25.52;78.88;100895.25;4860275;29;20293;-70
2023/08/20 00:40:08;;;;;;;8.60;5.72;;;;;;;25.49;78.38;100891.97;4858613;29;20286;-69
2023/08/20 00:42:36;;;;;;;10.52;5.85;;;;;;;25.52;78.30;100896.09;4862593;29;20439;-69
2023/08/20 00:45:04;;;;;;;7.55;5.75;;;;;;;25.52;78.26;100904.25;4860605;29;20213;-69
2023/08/20 00:47:32;;;;;;;10.20;5.85;;;;;;;25.52;78.31;100901.53;4861145;29;20623;-70
2023/08/20 00:50:01;;;;;;;6.50;5.25;;;;;;;25.51;78.30;100901.78;4861350;29;20290;-69
2023/08/20 00:52:30;;;;;;;8.07;5.45;;;;;;;25.50;78.04;100909.09;4859980;29;20302;-69
2023/08/20 00:54:58;;;;;;;9.35;5.80;;;;;;;25.48;78.29;100908.50;4859491;29;20219;-71
2023/08/20 00:57:27;;;;;;;9.60;5.95;;;;;;;25.46;78.08;100905.19;4859768;29;20573;-69
2023/08/20 00:59:57;;;;;;;10.00;6.10;;;;;;;25.45;78.38;100906.25;4861847;29;20305;-69
2023/08/20 01:02:24;;;;;;;8.25;5.07;;;;;;;25.43;78.88;100908.34;4860674;29;20537;-70
2023/08/20 01:04:53;;;;;;;6.70;5.72;;;;;;;25.38;78.97;100910.97;4862930;29;20222;-70
2023/08/20 01:07:28;;;;;;;10.15;5.82;;;;;;;25.35;79.23;100906.81;4857919;29;20206;-70
2023/08/20 01:10:05;;;;;;;12.05;5.85;;;;;;;25.30;79.33;100901.28;4860948;29;20217;-68
2023/08/20 01:12:35;;;;;;;10.70;6.07;;;;;;;25.22;80.03;100907.06;4862322;29;20215;-70
2023/08/20 01:15:03;;;;;;;9.73;5.75;;;;;;;25.18;80.13;100907.75;4858217;29;20242;-69
2023/08/20 01:17:31;;;;;;;13.77;6.15;;;;;;;25.14;80.37;100896.56;4859161;29;20242;-69
2023/08/20 01:19:58;;;;;;;9.00;6.00;;;;;;;25.13;80.50;100891.34;4858283;29;20231;-70
2023/08/20 01:22:58;;;;;;;7.18;5.82;;;;;;;25.10;80.64;100893.47;4857539;29;20238;-69
2023/08/20 01:25:38;;;;;;;8.38;6.03;;;;;;;25.08;80.76;100890.16;4856370;29;20706;-69
2023/08/20 01:28:19;;;;;;;9.27;6.38;;;;;;;25.04;81.43;100886.28;4857539;29;20214;-69
2023/08/20 01:30:47;;;;;;;9.55;6.53;;;;;;;24.94;82.35;100875.16;4857095;29;20209;-69
2023/08/20 01:33:16;;;;;;;9.60;6.60;;;;;;;24.93;81.90;100878.09;4859622;29;20311;-69
2023/08/20 01:35:43;;;;;;;13.52;6.95;;;;;;;24.94;82.64;100875.16;4859651;29;20222;-70
2023/08/20 01:38:11;;;;;;;12.43;6.75;;;;;;;24.87;82.58;100866.28;4857241;29;20210;-69
2023/08/20 01:40:39;;;;;;;11.55;6.55;;;;;;;24.83;82.64;100870.50;4858665;29;20880;-69
2023/08/20 01:43:07;;;;;;;9.13;6.80;;;;;;;24.84;82.59;100871.31;4857282;29;20258;-67
2023/08/20 01:45:36;;;;;;;9.32;6.53;;;;;;;24.83;83.21;100867.78;4857330;29;20212;-68
2023/08/20 01:48:04;;;;;;;8.43;6.10;;;;;;;24.77;83.93;100868.72;4858824;29;20303;-69
2023/08/20 01:50:32;;;;;;;9.50;6.93;;;;;;;24.80;82.71;100865.53;4854787;29;20249;-70
2023/08/20 01:53:00;;;;;;;12.02;6.70;;;;;;;24.86;81.94;100875.47;4859405;29;20304;-71
2023/08/20 01:55:27;;;;;;;11.63;6.78;;;;;;;24.92;81.56;100879.16;4859302;29;20761;-69
2023/08/20 01:57:59;;;;;;;9.00;6.05;;;;;;;24.96;81.19;100874.94;4856819;29;20206;-69
2023/08/20 02:00:28;;;;;;;9.82;6.47;;;;;;;25.00;80.68;100882.34;4859780;29;20226;-69
2023/08/20 02:02:57;;;;;;;8.52;5.95;;;;;;;25.00;80.96;100884.25;4859647;29;20240;-69
2023/08/20 02:05:25;;;;;;;11.35;6.60;;;;;;;25.01;80.97;100880.47;4859174;29;20261;-70
2023/08/20 02:07:54;;;;;;;7.20;6.13;;;;;;;24.99;80.91;100883.41;4860319;29;20210;-69
2023/08/20 02:10:22;;;;;;;8.13;6.10;;;;;;;24.99;80.67;100886.13;4862038;29;20819;-69
2023/08/20 02:12:50;;;;;;;10.05;6.47;;;;;;;24.99;80.56;100885.28;4858092;29;21387;-69
2023/08/20 02:15:17;;;;;;;9.52;6.15;;;;;;;24.98;80.68;100895.31;4860357;29;20676;-68
2023/08/20 02:17:45;;;;;;;11.20;6.95;;;;;;;24.96;80.70;100892.03;4862217;29;20242;-69
2023/08/20 02:20:15;;;;;;;9.10;6.40;;;;;;;24.95;80.65;100900.41;4861995;29;20214;-69
2023/08/20 02:22:43;;;;;;;8.65;6.03;;;;;;;24.93;80.78;100903.34;4859049;29;20243;-69
2023/08/20 02:25:10;;;;;;;9.77;6.55;;;;;;;24.93;80.75;100900.63;4858572;29;20305;-69
2023/08/20 02:27:38;;;;;;;7.53;5.95;;;;;;;24.91;80.61;100902.72;4856607;29;20218;-69
2023/08/20 02:30:07;;;;;;;12.70;6.53;;;;;;;24.90;80.66;100911.06;4858876;29;20233;-69
2023/08/20 02:32:35;;;;;;;9.60;6.05;;;;;;;24.89;80.76;100904.81;4860686;29;20299;-69
2023/08/20 02:35:05;;;;;;;9.98;6.65;;;;;;;24.87;80.83;100906.94;4860587;29;20221;-68
2023/08/20 02:37:35;;;;;;;11.60;5.82;;;;;;;24.86;80.82;100915.31;4859832;29;20206;-70
2023/08/20 02:40:04;;;;;;;8.60;6.22;;;;;;;24.85;80.87;100905.53;4860788;29;20221;-69
2023/08/20 02:42:32;;;;;;;8.95;6.65;;;;;;;24.83;80.92;100899.50;4858289;29;20677;-69
2023/08/20 02:45:00;;;;;;;8.05;6.07;;;;;;;24.82;80.89;100901.38;4861157;29;20249;-68
2023/08/20 02:47:27;;;;;;;8.38;6.15;;;;;;;24.81;81.04;100905.16;4859992;29;20220;-69
2023/08/20 02:49:55;;;;;;;7.40;5.63;;;;;;;24.79;81.01;100901.88;4862816;29;20214;-70
2023/08/20 02:52:23;;;;;;;12.52;6.35;;;;;;;24.79;81.04;100896.44;4861291;29;20886;-68
2023/08/20 02:54:52;;;;;;;7.68;6.10;;;;;;;24.78;81.07;100902.91;4859870;29;20218;-70
2023/08/20 02:57:20;;;;;;;10.27;6.20;;;;;;;24.76;81.21;100899.59;4860290;29;20329;-69
2023/08/20 02:59:49;;;;;;;11.98;6.50;;;;;;;24.73;81.11;100903.59;4863576;29;20221;-69
2023/08/20 03:02:16;;;;;;;13.27;6.45;;;;;;;24.72;81.02;100903.81;4862352;29;20220;-73
2023/08/20 03:04:45;;;;;;;11.85;6.65;;;;;;;24.69;81.17;100894.28;4862161;29;20273;-70
2023/08/20 03:07:13;;;;;;;7.00;5.97;;;;;;;24.70;81.05;100895.09;4860311;29;20207;-69
2023/08/20 03:09:40;;;;;;;8.27;6.43;;;;;;;24.70;80.80;100886.97;4859716;29;20264;-69
2023/08/20 03:12:10;;;;;;;13.77;6.65;;;;;;;24.68;80.77;100889.09;4859850;29;21070;-70
2023/08/20 03:14:37;;;;;;;6.78;6.00;;;;;;;24.66;81.04;100899.31;4861059;29;20302;-70
2023/08/20 03:17:05;;;;;;;10.75;6.20;;;;;;;24.66;80.65;100896.63;4860550;29;20266;-69
2023/08/20 03:19:35;;;;;;;7.28;5.93;;;;;;;24.65;80.57;100893.06;4862248;29;20276;-69
2023/08/20 03:22:02;;;;;;;11.65;6.95;;;;;;;24.61;80.86;100883.75;4861852;29;20306;-69
2023/08/20 03:24:30;;;;;;;12.30;6.43;;;;;;;24.45;82.12;100894.41;4863019;29;20237;-69
2023/08/20 03:26:58;;;;;;;8.88;6.43;;;;;;;24.33;83.66;100886.22;4864108;29;20426;-70
2023/08/20 03:29:27;;;;;;;8.70;6.40;;;;;;;24.23;84.56;100883.22;4863289;29;20294;-68
2023/08/20 03:31:54;;;;;;;7.78;6.20;;;;;;;24.17;84.97;100898.50;4862229;29;20217;-68
2023/08/20 03:34:23;;;;;;;10.82;6.47;;;;;;;24.21;84.25;100894.28;4863199;29;20330;-69
2023/08/20 03:36:50;;;;;;;8.52;6.63;;;;;;;24.30;83.55;100897.50;4862345;29;20481;-68
2023/08/20 03:39:19;;;;;;;12.40;7.10;;;;;;;24.36;83.09;100897.41;4863345;29;21072;-70
2023/08/20 03:41:47;;;;;;;7.93;5.90;;;;;;;24.41;82.60;100887.78;4863149;29;20325;-70
2023/08/20 03:44:14;;;;;;;8.05;6.43;;;;;;;24.45;82.46;100897.13;4861857;29;20233;-69
2023/08/20 03:46:44;;;;;;;9.63;7.55;;;;;;;24.47;82.04;100895.81;4861966;29;20864;-69
2023/08/20 03:49:11;;;;;;;10.32;6.93;;;;;;;24.48;82.12;100892.06;4862918;29;20248;-69
2023/08/20 03:51:40;;;;;;;12.63;6.82;;;;;;;24.48;81.97;100899.38;4861734;29;20237;-69
2023/08/20 03:54:08;;;;;;;10.52;6.68;;;;;;;24.46;82.12;100891.44;4857659;29;20225;-68
2023/08/20 03:56:36;;;;;;;11.65;7.35;;;;;;;24.48;81.95;100902.06;4860523;29;20680;-68
2023/08/20 03:59:04;;;;;;;10.82;6.78;;;;;;;24.49;81.89;100903.72;4860933;29;20762;-70
2023/08/20 04:01:32;;;;;;;9.07;6.70;;;;;;;24.49;82.08;100901.03;4862781;29;20298;-68
2023/08/20 04:04:01;;;;;;;10.82;7.43;;;;;;;24.47;82.14;100901.25;4860620;29;20317;-68
2023/08/20 04:06:29;;;;;;;11.75;7.35;;;;;;;24.47;82.15;100911.25;4859828;29;20697;-68
2023/08/20 04:08:57;;;;;;;9.60;7.15;;;;;;;24.47;82.19;100909.38;4861433;29;20278;-69
2023/08/20 04:11:24;;;;;;;12.38;7.50;;;;;;;24.48;82.15;100907.50;4862286;29;20226;-69
2023/08/20 04:13:52;;;;;;;11.57;7.55;;;;;;;24.48;82.20;100911.03;4861944;29;20222;-68
2023/08/20 04:16:20;;;;;;;8.80;6.93;;;;;;;24.47;82.56;100913.97;4860496;29;20376;-69
2023/08/20 04:18:48;;;;;;;12.43;7.78;;;;;;;24.44;82.57;100915.28;4860807;29;20852;-70
2023/08/20 04:21:17;;;;;;;10.50;7.55;;;;;;;24.43;82.71;100915.50;4862091;29;20227;-69
2023/08/20 04:23:44;;;;;;;11.60;7.78;;;;;;;24.44;82.41;100919.88;4860950;29;20273;-69
2023/08/20 04:26:12;;;;;;;11.18;7.25;;;;;;;24.45;82.48;100916.09;4861567;29;20725;-70
2023/08/20 04:28:40;;;;;;;11.63;6.55;;;;;;;24.44;82.75;100919.88;4862278;29;20218;-70
2023/08/20 04:31:08;;;;;;;8.90;7.50;;;;;;;24.42;82.81;100916.56;4863366;29;20242;-69
2023/08/20 04:33:36;;;;;;;8.93;7.60;;;;;;;24.42;82.64;100921.97;4862140;29;20226;-69
2023/08/20 04:36:04;;;;;;;10.30;7.03;;;;;;;24.42;82.84;100921.97;4860305;29;20214;-68
2023/08/20 04:38:33;;;;;;;12.48;7.38;;;;;;;24.42;82.87;100921.97;4862214;29;20287;-68
2023/08/20 04:41:01;;;;;;;8.95;6.65;;;;;;;24.44;82.55;100925.28;4861282;29;20219;-69
2023/08/20 04:43:29;;;;;;;9.88;6.95;;;;;;;24.44;82.59;100926.13;4859743;29;20688;-70
2023/08/20 04:45:56;;;;;;;11.88;7.32;;;;;;;24.45;82.67;100924.25;4858758;29;20218;-69
2023/08/20 04:48:24;;;;;;;11.13;6.93;;;;;;;24.46;82.33;100928.56;4858723;29;20210;-68
2023/08/20 04:50:52;;;;;;;13.40;7.35;;;;;;;24.48;82.50;100930.00;4861721;29;20260;-68
2023/08/20 04:53:20;;;;;;;11.30;7.13;;;;;;;24.48;82.41;100930.00;4860922;29;20241;-70
2023/08/20 04:55:49;;;;;;;10.30;7.43;;;;;;;24.52;82.29;100924.97;4861801;29;20298;-71
2023/08/20 04:58:16;;;;;;;11.07;7.30;;;;;;;24.54;82.16;100923.66;4858077;29;20210;-70
2023/08/20 05:00:44;;;;;;;9.88;6.70;;;;;;;24.56;82.08;100937.81;4859205;29;20334;-68
2023/08/20 05:03:12;;;;;;;13.25;7.00;;;;;;;24.58;81.90;100932.19;4857166;29;20225;-70
2023/08/20 05:05:40;;;;;;;9.88;7.32;;;;;;;24.62;81.92;100944.25;4858302;29;20322;-70
2023/08/20 05:08:08;;;;;;;16.63;8.52;;;;;;;24.65;81.58;100944.59;4857749;29;20309;-70
2023/08/20 05:10:37;;;;;;;12.73;8.43;;;;;;;24.67;81.56;100949.78;4858141;29;20271;-72
2023/08/20 05:13:06;;;;;;;23.52;9.85;;;;;;;24.71;81.65;100956.41;4856699;29;20211;-69
2023/08/20 05:15:34;;;;;;;13.25;8.25;;;;;;;24.72;81.89;100953.47;4856194;29;20668;-70
2023/08/20 05:18:02;;;;;;;16.02;8.70;;;;;;;24.75;81.96;100954.88;4858768;29;20644;-66
2023/08/20 05:20:30;;;;;;;11.57;7.43;;;;;;;24.78;82.13;100959.03;4856199;29;20286;-69
2023/08/20 05:22:58;;;;;;;13.55;7.22;;;;;;;24.77;81.85;100958.22;4860391;29;20287;-68
2023/08/20 05:25:25;;;;;;;10.65;7.57;;;;;;;24.80;81.77;100959.66;4858342;29;20245;-69
2023/08/20 05:27:53;;;;;;;16.98;8.00;;;;;;;24.82;81.75;100961.03;4859576;29;20622;-67
2023/08/20 05:30:22;;;;;;;10.90;6.63;;;;;;;24.85;81.16;100960.59;4858191;29;20249;-67
2023/08/20 05:32:50;;;;;;;13.35;7.47;;;;;;;24.87;81.60;100963.91;4860432;29;20215;-69
2023/08/20 05:35:17;;;;;;;11.05;7.00;;;;;;;24.86;81.21;100961.44;4859513;29;20321;-69
2023/08/20 05:37:45;;;;;;;10.55;6.70;;;;;;;24.86;81.37;100961.44;4859268;29;20815;-71
2023/08/20 05:40:13;;;;;;;19.35;6.97;;;;;;;24.86;81.74;100961.44;4860677;29;20238;-69
2023/08/20 05:42:41;;;;;;;14.10;6.70;;;;;;;24.85;82.09;100966.03;4823756;29;1073015;-69
2023/08/20 05:45:09;;;;;;;10.05;7.55;;;;;;;24.85;82.65;100966.03;4861403;29;20265;-69
2023/08/20 05:47:38;;;;;;;16.00;7.10;;;;;;;24.90;81.62;100962.59;4857651;29;20225;-66
2023/08/20 05:50:07;;;;;;;9.38;6.70;;;;;;;24.92;81.94;100968.66;4857112;29;20217;-66
2023/08/20 05:52:35;;;;;;;13.10;6.95;;;;;;;24.97;81.34;100964.22;4861086;29;20215;-66
2023/08/20 05:55:04;;;;;;;14.07;7.85;;;;;;;25.04;81.60;100973.09;4860352;29;20736;-67
2023/08/20 05:57:33;;;;;;;9.48;7.05;;;;;;;25.09;81.75;100978.63;4859602;29;20206;-67
2023/08/20 06:00:01;;;;;;;10.88;7.13;;;;;;;25.11;82.61;100984.66;4860759;29;20314;-65
2023/08/20 06:02:28;;;;;;;9.77;6.80;;;;;;;25.17;82.50;100984.78;4860781;29;20214;-65
2023/08/20 06:04:58;;;;;;;11.77;7.93;;;;;;;25.22;82.18;100985.78;4861865;29;20242;-65
2023/08/20 06:07:28;;;;;;;8.18;6.65;;;;;;;25.28;82.53;100984.00;4858881;29;20207;-65
2023/08/20 06:09:56;;;;;;;9.63;7.35;;;;;;;25.33;81.66;100995.81;4859703;29;20621;-66
2023/08/20 06:12:24;;;;;;;10.52;7.50;;;;;;;25.38;81.21;100979.66;4860514;29;20211;-65
2023/08/20 06:14:52;;;;;;;16.33;7.85;;;;;;;25.44;80.97;100992.28;4859137;29;20222;-66
2023/08/20 06:17:19;;;;;;;10.48;7.28;;;;;;;25.47;81.10;100988.28;4858361;29;20297;-66
2023/08/20 06:19:47;;;;;;;10.25;6.88;;;;;;;25.46;81.04;100989.34;4857656;29;20229;-66
2023/08/20 06:22:16;;;;;;;10.55;7.35;;;;;;;25.46;81.34;100983.91;4860898;29;20215;-65
2023/08/20 06:24:44;;;;;;;11.82;7.68;;;;;;;25.43;81.27;100979.78;4859190;29;20246;-66
2023/08/20 06:27:12;;;;;;;9.27;7.10;;;;;;;25.44;81.82;100986.03;4859333;29;20238;-65
2023/08/20 06:29:39;;;;;;;8.00;6.97;;;;;;;25.45;81.71;100993.94;4861350;29;20896;-64
2023/08/20 06:32:07;;;;;;;15.15;7.22;;;;;;;25.51;81.39;100996.81;4860108;29;20221;-66
2023/08/20 06:34:36;;;;;;;10.38;7.38;;;;;;;25.58;80.92;100998.34;4858374;29;20675;-68
2023/08/20 06:37:05;;;;;;;12.07;7.40;;;;;;;25.65;80.66;100998.28;4861261;29;20265;-66
2023/08/20 06:39:34;;;;;;;10.07;7.25;;;;;;;25.69;80.14;100994.84;4862695;29;20246;-66
2023/08/20 06:42:02;;;;;;;12.43;6.85;;;;;;;25.71;80.10;100997.31;4860958;29;20713;-66
2023/08/20 06:44:30;;;;;;;14.98;7.32;;;;;;;25.71;79.72;100998.16;4860411;29;20285;-66
2023/08/20 06:46:57;;;;;;;11.57;7.35;;;;;;;25.68;80.02;100993.19;4857352;29;20568;-65
2023/08/20 06:49:27;;;;;;;18.20;7.32;;;;;;;25.67;79.81;101002.41;4861456;29;20206;-65
2023/08/20 06:51:56;;;;;;;9.48;6.90;;;;;;;25.68;79.34;100998.59;4857461;29;20216;-64
2023/08/20 06:54:24;;;;;;;8.52;7.10;;;;;;;25.69;78.70;101005.69;4859983;29;20274;-63
2023/08/20 06:56:56;;;;;;;10.02;7.00;;;;;;;25.73;78.48;101006.91;4857962;29;20210;-65
2023/08/20 06:59:23;;;;;;;10.05;6.80;;;;;;;25.74;78.18;100997.69;4860469;29;21064;-63
2023/08/20 07:01:51;;;;;;;13.60;7.05;;;;;;;25.75;78.00;100996.63;4858992;29;20215;-67
2023/08/20 07:04:19;;;;;;;9.23;6.63;;;;;;;25.78;77.90;100998.03;4857317;29;20202;-65
2023/08/20 07:06:46;;;;;;;10.85;6.63;;;;;;;25.81;77.86;101009.25;4861031;29;20257;-65
2023/08/20 07:09:16;;;;;;;12.07;6.53;;;;;;;25.84;78.21;101005.25;4860044;29;20251;-65
2023/08/20 07:11:43;;;;;;;13.68;7.57;;;;;;;25.86;78.05;101014.81;4862433;29;20259;-64
2023/08/20 07:14:15;;;;;;;8.20;5.97;;;;;;;25.91;77.78;101018.72;4858473;29;20246;-66
2023/08/20 07:16:43;;;;;;;12.45;7.35;;;;;;;25.95;77.59;101012.56;4857958;29;20218;-66
2023/08/20 07:19:11;;;;;;;9.20;6.70;;;;;;;25.97;77.69;101012.34;4856945;29;20211;-64
2023/08/20 07:21:38;;;;;;;8.65;6.78;;;;;;;26.02;76.97;101012.47;4856673;29;20301;-65
2023/08/20 07:24:07;;;;;;;13.70;7.25;;;;;;;26.04;76.83;101013.88;4857676;29;20914;-65
2023/08/20 07:26:35;;;;;;;7.43;6.30;;;;;;;26.06;76.63;101011.75;4857271;29;20245;-67
2023/08/20 07:29:06;;;;;;;14.20;7.30;;;;;;;26.11;76.40;101009.16;4856896;29;20210;-65
2023/08/20 07:31:35;;;;;;;9.40;7.22;;;;;;;26.16;76.79;101016.59;4858840;29;20212;-66
2023/08/20 07:34:04;;;;;;;9.75;6.65;;;;;;;26.18;75.71;101011.75;4860334;29;20215;-64
2023/08/20 07:36:33;;;;;;;11.75;6.72;;;;;;;26.22;75.82;101021.06;4857612;29;20211;-66
2023/08/20 07:39:01;;;;;;;12.15;6.80;;;;;;;26.27;75.58;101023.94;4859868;29;20680;-66
2023/08/20 07:41:30;;;;;;;10.00;6.80;;;;;;;26.31;74.98;101024.28;4859814;29;20326;-65
2023/08/20 07:43:58;;;;;;;10.93;6.28;;;;;;;26.36;74.80;101019.78;4861762;29;20672;-65
2023/08/20 07:46:26;;;;;;;9.40;7.00;;;;;;;26.42;74.74;101020.72;4861661;29;20333;-64
2023/08/20 07:48:55;;;;;;;10.88;6.97;;;;;;;26.46;74.17;101020.03;4861193;29;20748;-65
2023/08/20 07:51:23;;;;;;;9.27;6.82;;;;;;;26.51;74.37;101025.56;4863037;29;20206;-64
2023/08/20 07:53:50;;;;;;;9.15;6.60;;;;;;;26.58;73.68;101025.41;4859619;29;20259;-66
2023/08/20 07:56:18;;;;;;;9.35;6.50;;;;;;;26.64;73.60;101034.53;4863549;29;20305;-66
2023/08/20 07:58:46;;;;;;;10.77;7.28;;;;;;;26.72;73.03;101028.69;4862982;29;20225;-65
2023/08/20 08:01:14;;;;;;;13.18;6.90;;;;;;;26.76;73.28;101029.84;4863303;29;20301;-66
2023/08/20 08:03:41;;;;;;;11.13;7.47;;;;;;;26.84;72.39;101024.03;4861953;29;20215;-65
2023/08/20 08:06:11;;;;;;;11.73;6.97;;;;;;;26.94;71.61;101029.72;4860823;29;20253;-66
2023/08/20 08:08:42;;;;;;;8.88;7.05;;;;;;;27.03;71.33;101024.72;4868083;29;20234;-66
2023/08/20 08:11:10;;;;;;;8.65;7.00;;;;;;;27.11;70.61;101021.59;4859695;29;20203;-66
2023/08/20 08:13:38;;;;;;;10.05;6.78;;;;;;;27.18;69.95;101033.97;4862698;29;20202;-65
2023/08/20 08:16:05;;;;;;;7.47;6.65;;;;;;;27.24;69.94;101019.41;4860194;29;22191;-62
2023/08/20 08:18:33;;;;;;;12.23;6.80;;;;;;;27.38;70.47;101024.53;4862220;29;20234;-63
2023/08/20 08:21:01;;;;;;;13.52;7.00;;;;;;;27.54;70.62;101029.19;4860897;29;20221;-63
2023/08/20 08:23:30;;;;;;;11.15;6.80;;;;;;;27.69;69.89;101026.75;4860649;29;20795;-63
2023/08/20 08:25:58;;;;;;;13.02;7.43;;;;;;;27.82;68.99;101031.84;4859234;29;20350;-64
2023/08/20 08:28:25;;;;;;;9.68;7.00;;;;;;;27.95;68.88;101034.25;4861002;29;20688;-63
2023/08/20 08:30:53;;;;;;;13.60;7.57;;;;;;;28.06;68.74;101038.75;4861753;29;20691;-63
2023/08/20 08:33:21;;;;;;;8.70;6.80;;;;;;;28.21;68.47;101034.66;4860180;29;20214;-63
2023/08/20 08:35:48;;;;;;;11.48;7.32;;;;;;;28.32;67.60;101033.72;4861460;29;20226;-63
2023/08/20 08:38:16;;;;;;;12.60;6.65;;;;;;;28.43;67.10;101033.59;4861778;29;20214;-63
2023/08/20 08:40:46;;;;;;;8.60;6.55;;;;;;;28.56;66.41;101035.13;4860253;29;20217;-62
2023/08/20 08:43:16;;;;;;;9.93;6.03;;;;;;;28.67;66.27;101038.81;4860649;29;20241;-62
2023/08/20 08:45:48;;;;;;;12.93;6.28;;;;;;;28.76;65.20;101026.38;4858337;29;20198;-62
2023/08/20 08:48:16;;;;;;;10.82;6.10;;;;;;;28.87;64.18;101036.34;4858297;29;20578;-61
2023/08/20 08:50:44;;;;;;;9.82;7.15;;;;;;;28.96;64.82;101025.81;4859109;29;20251;-62
2023/08/20 08:53:13;;;;;;;17.08;11.80;;;;;;;29.05;64.85;101036.00;4859751;29;20203;-62
2023/08/20 08:55:41;;;;;;;24.15;20.48;;;;;;;29.12;64.31;101035.81;4858857;29;20225;-63
2023/08/20 08:58:11;;;;;;;19.77;13.63;;;;;;;29.23;63.02;101032.09;4858697;29;20207;-63
2023/08/20 09:00:39;;;;;;;12.63;7.97;;;;;;;29.31;63.46;101039.00;4859067;29;20268;-62
2023/08/20 09:03:07;;;;;;;10.80;7.97;;;;;;;29.38;63.15;101039.66;4859143;29;20211;-64
2023/08/20 09:05:47;;;;;;;13.05;5.90;;;;;;;29.48;62.47;101040.56;4859604;29;20583;-65
2023/08/20 09:08:20;;;;;;;11.25;6.70;;;;;;;29.56;63.19;101048.28;4858202;29;20294;-63
2023/08/20 09:10:52;;;;;;;11.65;6.78;;;;;;;29.66;62.12;101047.56;4856032;29;20600;-66
2023/08/20 09:13:25;;;;;;;9.95;6.53;;;;;;;29.74;60.85;101049.81;4859204;29;20927;-61
2023/08/20 09:15:54;;;;;;;13.93;8.43;;;;;;;29.83;61.08;101045.50;4862304;29;20203;-62
2023/08/20 09:18:22;;;;;;;8.40;6.63;;;;;;;29.92;61.16;101048.56;4861082;29;21013;-62
2023/08/20 09:20:50;;;;;;;9.00;6.50;;;;;;;30.01;60.98;101041.56;4860346;29;20214;-64
2023/08/20 09:23:18;;;;;;;13.50;6.53;;;;;;;30.10;59.99;101039.16;4863030;29;20230;-63
2023/08/20 09:25:46;;;;;;;10.10;6.28;;;;;;;30.17;58.79;101040.56;4864159;29;20871;-63
2023/08/20 09:28:14;;;;;;;11.43;6.57;;;;;;;30.26;59.20;101038.16;4860108;29;20238;-64
2023/08/20 09:30:55;;;;;;;9.50;6.03;;;;;;;30.39;57.06;101039.63;4861092;29;20218;-63
2023/08/20 09:33:24;;;;;;;11.43;6.53;;;;;;;30.43;56.49;101041.56;4860354;29;20210;-62
2023/08/20 09:35:53;;;;;;;8.65;5.88;;;;;;;30.52;56.52;101047.38;4858358;29;20229;-64
2023/08/20 09:38:22;;;;;;;10.20;5.85;;;;;;;30.58;56.79;101041.66;4859848;29;20218;-63
2023/08/20 09:40:52;;;;;;;11.30;6.40;;;;;;;30.64;56.31;101039.75;4861211;29;20302;-62
2023/08/20 09:43:20;;;;;;;14.93;6.40;;;;;;;30.66;54.36;101035.66;4860058;29;20246;-63
2023/08/20 09:45:50;;;;;;;11.63;5.93;;;;;;;30.70;55.18;101038.69;4860020;29;20210;-62
2023/08/20 09:48:20;;;;;;;9.73;5.82;;;;;;;30.77;55.88;101031.06;4860224;29;20238;-62
2023/08/20 09:50:49;;;;;;;10.55;6.15;;;;;;;30.79;54.67;101028.84;4857821;29;20210;-62
2023/08/20 09:53:24;;;;;;;10.93;5.85;;;;;;;30.84;54.65;101026.16;4862061;29;20210;-62
2023/08/20 09:55:52;;;;;;;7.35;5.18;;;;;;;30.96;53.89;101029.47;4859751;29;20264;-65
2023/08/20 09:58:25;;;;;;;11.60;5.95;;;;;;;31.05;54.04;101022.34;4857122;29;20225;-62
2023/08/20 10:00:54;;;;;;;16.88;6.03;;;;;;;31.13;54.84;101031.19;4859998;29;20206;-64
2023/08/20 10:03:23;;;;;;;9.93;7.05;;;;;;;31.19;54.68;101033.66;4859892;29;20214;-64
2023/08/20 10:05:51;;;;;;;9.35;5.50;;;;;;;31.29;54.12;101032.88;4860449;29;20223;-62
2023/08/20 10:08:19;;;;;;;9.55;6.00;;;;;;;31.33;53.07;101034.78;4859750;29;20736;-62
2023/08/20 10:10:47;;;;;;;9.18;5.57;;;;;;;31.27;51.49;101035.88;4858538;29;20979;-63
2023/08/20 10:13:16;;;;;;;11.00;5.95;;;;;;;31.13;52.10;101034.75;4857432;29;20214;-64
2023/08/20 10:15:45;;;;;;;10.10;4.78;;;;;;;30.92;51.87;101031.09;4859174;29;20219;-63
2023/08/20 10:18:15;;;;;;;8.50;5.75;;;;;;;30.78;52.07;101032.72;4862229;29;20221;-65
2023/08/20 10:20:43;;;;;;;9.98;6.88;;;;;;;30.71;53.16;101026.63;4858967;29;20786;-63
2023/08/20 10:23:13;;;;;;;8.18;6.25;;;;;;;30.72;54.03;101027.47;4860898;29;20222;-64
2023/08/20 10:25:44;;;;;;;9.52;6.45;;;;;;;30.75;54.05;101025.03;4861706;29;20219;-63
2023/08/20 10:28:14;;;;;;;8.52;6.28;;;;;;;30.83;53.93;101024.50;4862463;29;20222;-65
2023/08/20 10:31:04;;;;;;;9.65;5.70;;;;;;;31.15;54.69;101028.97;4857612;29;20329;-65
2023/08/20 10:33:34;;;;;;;7.80;6.20;;;;;;;31.33;52.44;101022.97;4860470;29;20908;-62
2023/08/20 10:36:10;;;;;;;8.13;5.97;;;;;;;31.39;52.14;101030.13;4859277;29;20251;-64
2023/08/20 10:38:38;;;;;;;10.48;5.57;;;;;;;31.40;52.01;101023.56;4859854;29;20245;-63
2023/08/20 10:41:08;;;;;;;9.43;5.30;;;;;;;31.53;50.90;101023.00;4859973;29;20253;-63
2023/08/20 10:43:38;;;;;;;7.25;4.93;;;;;;;31.69;49.73;101013.72;4859762;29;20222;-63
2023/08/20 10:46:15;;;;;;;8.23;5.55;;;;;;;31.83;50.29;101013.16;4860954;29;20203;-64
2023/08/20 10:48:48;;;;;;;8.65;5.60;;;;;;;31.80;50.23;101016.44;4859059;29;20286;-63
2023/08/20 10:51:17;;;;;;;9.95;5.82;;;;;;;31.61;50.38;101025.19;4858208;29;20215;-63
2023/08/20 10:54:03;;;;;;;9.82;5.38;;;;;;;31.46;51.24;101016.97;4857312;29;20206;-63
2023/08/20 10:56:40;;;;;;;11.00;5.70;;;;;;;31.70;49.86;101017.28;4858480;29;20271;-64
2023/08/20 10:59:10;;;;;;;10.18;5.03;;;;;;;32.25;49.46;101015.56;4857618;29;20274;-64
2023/08/20 11:01:38;;;;;;;8.38;5.53;;;;;;;32.96;47.86;101015.28;4855738;29;20222;-65
2023/08/20 11:04:07;;;;;;;10.95;5.15;;;;;;;33.81;45.28;101013.03;4857021;29;20298;-67
2023/08/20 11:06:35;;;;;;;9.20;5.45;;;;;;;34.17;42.86;101013.47;4859927;29;20623;-63
2023/08/20 11:09:05;;;;;;;7.38;4.82;;;;;;;34.09;43.28;101014.13;4856619;29;20738;-64
2023/08/20 11:11:33;;;;;;;9.20;5.90;;;;;;;33.81;44.19;101007.53;4856043;29;20736;-63
2023/08/20 11:14:06;;;;;;;8.80;4.80;;;;;;;35.40;41.44;101001.38;4858911;29;20218;-63
2023/08/20 11:16:34;;;;;;;8.40;6.00;;;;;;;38.49;36.12;100995.50;4860185;29;20217;-63
2023/08/20 11:19:05;;;;;;;7.25;4.80;;;;;;;41.29;32.42;100990.88;4861748;29;20214;-66
2023/08/20 11:21:34;;;;;;;8.98;5.50;;;;;;;43.86;28.76;100976.25;4861043;29;20217;-63
2023/08/20 11:24:02;;;;;;;10.10;5.63;;;;;;;45.59;26.30;100978.47;4861317;29;20211;-66
2023/08/20 11:26:30;;;;;;;7.10;5.13;;;;;;;46.63;25.51;100979.78;4862737;29;20274;-66
2023/08/20 11:28:58;;;;;;;10.77;5.82;;;;;;;47.65;24.45;100968.16;4860869;29;20269;-65